createdAt,value
2023-01-01T00:00:51.422Z,4.60
2023-01-01T00:03:19.791Z,6.22
2023-01-01T00:05:47.567Z,6.00
2023-01-01T00:08:18.383Z,1.83
2023-01-01T00:10:46.658Z,5.10
2023-01-01T00:13:15.447Z,6.12
2023-01-01T00:15:43.357Z,6.15
2023-01-01T00:18:11.472Z,6.28
2023-01-01T00:20:39.410Z,7.75
2023-01-01T00:23:07.132Z,5.40
2023-01-01T00:25:35.251Z,6.62
2023-01-01T00:28:03.477Z,9.77
2023-01-01T00:30:31.259Z,5.20
2023-01-01T00:32:59.391Z,4.18
2023-01-01T00:35:27.915Z,10.27
2023-01-01T00:37:56.038Z,9.93
2023-01-01T00:40:24.358Z,6.00
2023-01-01T00:42:52.322Z,8.02
2023-01-01T00:45:23.118Z,7.03
2023-01-01T00:47:53.498Z,10.57
2023-01-01T00:50:23.955Z,8.40
2023-01-01T00:52:55.563Z,5.97
2023-01-01T00:55:23.517Z,5.35
2023-01-01T00:57:54.347Z,7.72
2023-01-01T01:00:22.711Z,8.68
2023-01-01T01:02:50.505Z,6.12
2023-01-01T01:05:21.335Z,11.30
2023-01-01T01:07:49.638Z,4.93
2023-01-01T01:10:17.941Z,14.65
2023-01-01T01:12:48.857Z,7.12
2023-01-01T01:15:17.150Z,12.35
2023-01-01T01:17:45.082Z,12.65
2023-01-01T01:20:13.283Z,10.30
2023-01-01T01:22:41.608Z,7.57
2023-01-01T01:25:09.896Z,5.25
2023-01-01T01:27:37.865Z,6.97
2023-01-01T01:30:06.820Z,10.57
2023-01-01T01:32:34.837Z,8.73
2023-01-01T01:35:02.665Z,6.72
2023-01-01T01:37:30.980Z,6.40
2023-01-01T01:39:58.885Z,8.68
2023-01-01T01:42:26.862Z,15.10
2023-01-01T01:45:01.211Z,11.20
2023-01-01T01:47:36.662Z,9.98
2023-01-01T01:50:16.990Z,11.23
2023-01-01T01:53:06.109Z,11.95
2023-01-01T01:55:38.141Z,8.15
2023-01-01T01:58:10.423Z,7.15
2023-01-01T02:00:41.767Z,11.15
2023-01-01T02:03:22.365Z,7.78
2023-01-01T02:05:51.946Z,9.13
2023-01-01T02:08:21.517Z,7.30
2023-01-01T02:10:49.292Z,14.25
2023-01-01T02:13:18.367Z,10.07
2023-01-01T02:15:57.918Z,10.38
2023-01-01T02:18:50.210Z,8.45
2023-01-01T02:21:25.841Z,12.13
2023-01-01T02:24:06.861Z,10.15
2023-01-01T02:26:47.847Z,12.45
2023-01-01T02:29:38.820Z,7.78
2023-01-01T02:32:18.724Z,12.77
2023-01-01T02:35:00.431Z,7.82
2023-01-01T02:37:30.070Z,13.15
2023-01-01T02:39:59.988Z,6.75
2023-01-01T02:42:30.793Z,10.07
2023-01-01T02:45:00.570Z,4.72
2023-01-01T02:47:30.816Z,6.55
2023-01-01T02:50:13.429Z,7.35
2023-01-01T02:53:00.107Z,12.05
2023-01-01T02:55:59.807Z,10.95
2023-01-01T02:59:11.644Z,5.62
2023-01-01T03:01:51.025Z,6.70
2023-01-01T03:04:21.909Z,5.57
2023-01-01T03:07:14.733Z,4.93
2023-01-01T03:10:24.316Z,6.35
2023-01-01T03:12:51.995Z,7.55
2023-01-01T03:15:29.233Z,9.95
2023-01-01T03:18:31.884Z,3.67
2023-01-01T03:21:03.831Z,2.90
2023-01-01T03:23:37.557Z,6.82
2023-01-01T03:26:10.981Z,6.00
2023-01-01T03:28:54.347Z,6.37
2023-01-01T03:31:26.020Z,8.45
2023-01-01T03:34:04.219Z,6.75
2023-01-01T03:36:37.792Z,7.53
2023-01-01T03:39:08.416Z,3.92
2023-01-01T03:41:42.615Z,7.85
2023-01-01T03:44:21.768Z,7.25
2023-01-01T03:46:50.781Z,5.95
2023-01-01T03:49:19.782Z,6.50
2023-01-01T03:52:02.772Z,7.22
2023-01-01T03:54:39.761Z,8.75
2023-01-01T03:57:35.969Z,6.97
2023-01-01T04:00:08.394Z,6.60
2023-01-01T04:02:53.028Z,9.15
2023-01-01T04:05:22.314Z,7.22
2023-01-01T04:07:52.356Z,7.55
2023-01-01T04:10:20.940Z,5.95
2023-01-01T04:12:56.582Z,7.12
2023-01-01T04:15:27.092Z,6.07
2023-01-01T04:17:55.624Z,4.62
2023-01-01T04:20:24.195Z,5.43
2023-01-01T04:22:52.124Z,7.03
2023-01-01T04:25:20.318Z,2.83
2023-01-01T04:27:51.149Z,4.43
2023-01-01T04:30:19.703Z,6.22
2023-01-01T04:32:48.052Z,4.25
2023-01-01T04:35:16.361Z,6.35
2023-01-01T04:37:46.401Z,5.57
2023-01-01T04:40:15.365Z,5.30
2023-01-01T04:42:43.803Z,6.30
2023-01-01T04:45:15.519Z,6.45
2023-01-01T04:47:44.067Z,8.70
2023-01-01T04:50:11.893Z,3.70
2023-01-01T04:52:39.821Z,5.53
2023-01-01T04:55:08.543Z,5.68
2023-01-01T04:57:36.451Z,4.90
2023-01-01T05:00:04.933Z,6.00
2023-01-01T05:02:33.374Z,6.68
2023-01-01T05:05:01.543Z,5.55
2023-01-01T05:07:30.592Z,7.30
2023-01-01T05:09:58.941Z,6.15
2023-01-01T05:12:30.597Z,4.20
2023-01-01T05:14:58.836Z,2.80
2023-01-01T05:17:26.816Z,6.05
2023-01-01T05:19:54.758Z,3.78
2023-01-01T05:22:23.193Z,5.37
2023-01-01T05:24:51.181Z,4.55
2023-01-01T05:27:19.153Z,8.32
2023-01-01T05:29:47.435Z,5.70
2023-01-01T05:34:41.934Z,5.85
2023-01-01T05:37:10.267Z,8.05
2023-01-01T05:39:38.143Z,2.28
2023-01-01T05:42:06.123Z,4.68
2023-01-01T05:44:34.482Z,6.45
2023-01-01T05:47:05.543Z,3.70
2023-01-01T05:49:33.474Z,7.07
2023-01-01T05:52:02.958Z,6.70
2023-01-01T05:54:34.395Z,6.55
2023-01-01T05:57:02.702Z,4.90
2023-01-01T05:59:30.624Z,5.57
2023-01-01T06:01:58.396Z,3.12
2023-01-01T06:04:26.806Z,7.60
2023-01-01T06:06:54.798Z,7.05
2023-01-01T06:09:22.835Z,7.03
2023-01-01T06:11:50.951Z,6.45
2023-01-01T06:14:18.859Z,3.45
2023-01-01T06:16:46.767Z,5.72
2023-01-01T06:19:15.127Z,4.05
2023-01-01T06:21:46.456Z,5.57
2023-01-01T06:24:14.491Z,4.28
2023-01-01T06:26:42.856Z,6.07
2023-01-01T06:29:10.778Z,5.45
2023-01-01T06:31:40.936Z,2.50
2023-01-01T06:34:09.748Z,5.30
2023-01-01T06:36:37.765Z,4.90
2023-01-01T06:39:05.983Z,5.30
2023-01-01T06:41:34.280Z,5.75
2023-01-01T06:44:02.423Z,6.75
2023-01-01T06:46:33.072Z,5.95
2023-01-01T06:49:05.055Z,5.97
2023-01-01T06:51:37.018Z,5.57
2023-01-01T06:54:05.711Z,5.57
2023-01-01T06:59:20.454Z,7.07
2023-01-01T07:01:48.183Z,5.10
2023-01-01T07:04:16.845Z,5.80
2023-01-01T07:06:45.124Z,6.05
2023-01-01T07:09:12.921Z,4.07
2023-01-01T07:11:41.019Z,6.10
2023-01-01T07:14:09.181Z,7.43
2023-01-01T07:16:37.018Z,6.75
2023-01-01T07:19:04.896Z,6.43
2023-01-01T07:21:51.661Z,7.45
2023-01-01T07:24:19.650Z,3.37
2023-01-01T07:26:49.249Z,5.60
2023-01-01T07:29:17.512Z,4.85
2023-01-01T07:31:48.189Z,8.20
2023-01-01T07:34:20.111Z,2.53
2023-01-01T07:36:48.003Z,2.72
2023-01-01T07:39:16.391Z,5.55
2023-01-01T07:41:44.232Z,4.10
2023-01-01T07:44:14.078Z,5.32
2023-01-01T07:46:42.368Z,4.28
2023-01-01T07:49:10.267Z,3.37
2023-01-01T07:51:38.081Z,5.28
2023-01-01T07:54:07.618Z,4.75
2023-01-01T07:56:36.501Z,3.62
2023-01-01T07:59:05.207Z,6.28
2023-01-01T08:01:37.033Z,4.55
2023-01-01T08:04:06.169Z,6.53
2023-01-01T08:06:34.415Z,5.05
2023-01-01T08:09:02.327Z,5.43
2023-01-01T08:11:30.704Z,6.15
2023-01-01T08:14:02.137Z,7.40
2023-01-01T08:16:32.759Z,5.45
2023-01-01T08:19:05.080Z,5.22
2023-01-01T08:21:33.547Z,4.10
2023-01-01T08:24:01.976Z,5.20
2023-01-01T08:26:33.345Z,5.97
2023-01-01T08:29:07.169Z,4.18
2023-01-01T08:31:35.504Z,4.70
2023-01-01T08:34:04.345Z,2.65
2023-01-01T08:36:33.067Z,5.53
2023-01-01T08:39:01.667Z,8.35
2023-01-01T08:41:32.936Z,6.68
2023-01-01T08:44:00.947Z,5.62
2023-01-01T08:46:29.538Z,4.90
2023-01-01T08:48:57.978Z,6.47
2023-01-01T08:51:26.181Z,4.75
2023-01-01T08:53:54.625Z,4.57
2023-01-01T08:56:25.814Z,6.22
2023-01-01T08:58:57.454Z,5.87
2023-01-01T09:01:30.907Z,6.20
2023-01-01T09:04:00.101Z,6.35
2023-01-01T09:06:28.344Z,5.03
2023-01-01T09:08:56.717Z,6.03
2023-01-01T09:11:29.557Z,7.87
2023-01-01T09:13:57.819Z,9.88
2023-01-01T09:16:27.466Z,9.88
2023-01-01T09:18:56.262Z,10.68
2023-01-01T09:21:25.416Z,12.25
2023-01-01T09:23:57.517Z,7.35
2023-01-01T09:26:25.998Z,3.47
2023-01-01T09:28:56.921Z,3.72
2023-01-01T09:31:26.026Z,4.75
2023-01-01T09:33:54.358Z,3.65
2023-01-01T09:36:22.467Z,4.50
2023-01-01T09:38:53.177Z,4.60
2023-01-01T09:41:44.171Z,5.72
2023-01-01T09:44:37.761Z,5.28
2023-01-01T09:47:18.133Z,7.37
2023-01-01T09:49:49.570Z,4.55
2023-01-01T09:52:18.779Z,4.53
2023-01-01T09:55:13.820Z,5.05
2023-01-01T09:57:42.773Z,4.03
2023-01-01T10:00:17.921Z,5.43
2023-01-01T10:03:16.664Z,5.85
2023-01-01T10:05:57.387Z,4.50
2023-01-01T10:08:57.532Z,3.65
2023-01-01T10:11:40.297Z,5.30
2023-01-01T10:14:33.535Z,5.10
2023-01-01T10:17:11.782Z,3.95
2023-01-01T10:19:56.860Z,5.65
2023-01-01T10:22:36.773Z,4.68
2023-01-01T10:25:24.808Z,4.03
2023-01-01T10:28:08.115Z,4.53
2023-01-01T10:30:38.330Z,4.37
2023-01-01T10:33:13.526Z,3.42
2023-01-01T10:35:56.426Z,4.03
2023-01-01T10:38:28.107Z,7.07
2023-01-01T10:41:12.116Z,4.82
2023-01-01T10:43:49.297Z,5.43
2023-01-01T10:46:31.255Z,4.07
2023-01-01T10:49:14.557Z,5.68
2023-01-01T10:51:48.584Z,5.62
2023-01-01T10:54:31.717Z,4.35
2023-01-01T10:57:23.468Z,7.45
2023-01-01T10:59:54.567Z,6.80
2023-01-01T11:02:29.695Z,6.32
2023-01-01T11:05:22.187Z,7.40
2023-01-01T11:07:52.534Z,6.90
2023-01-01T11:10:32.862Z,6.82
2023-01-01T11:13:05.545Z,6.65
2023-01-01T11:15:43.265Z,5.80
2023-01-01T11:18:16.332Z,7.32
2023-01-01T11:23:34.440Z,6.28
2023-01-01T11:26:16.179Z,5.72
2023-01-01T11:29:16.932Z,6.85
2023-01-01T11:31:48.274Z,7.45
2023-01-01T11:34:29.831Z,6.18
2023-01-01T11:37:34.998Z,3.87
2023-01-01T11:40:17.260Z,6.32
2023-01-01T11:42:58.251Z,7.07
2023-01-01T11:48:33.042Z,7.68
2023-01-01T11:51:08.697Z,6.60
2023-01-01T11:53:43.621Z,6.20
2023-01-01T11:56:30.159Z,6.95
2023-01-01T11:59:17.415Z,7.15
2023-01-01T12:01:55.793Z,5.97
2023-01-01T12:04:30.667Z,8.65
2023-01-01T12:07:10.003Z,7.60
2023-01-01T12:09:52.231Z,7.28
2023-01-01T12:12:31.039Z,6.95
2023-01-01T12:15:16.292Z,7.60
2023-01-01T12:17:55.078Z,8.30
2023-01-01T12:20:28.670Z,4.53
2023-01-01T12:23:01.963Z,4.85
2023-01-01T12:25:39.949Z,5.43
2023-01-01T12:28:25.484Z,4.70
2023-01-01T12:31:10.128Z,4.78
2023-01-01T12:34:03.185Z,5.97
2023-01-01T12:43:49.254Z,6.40
2023-01-01T12:46:30.934Z,5.32
2023-01-01T12:49:22.269Z,4.87
2023-01-01T12:52:05.685Z,5.87
2023-01-01T12:55:02.060Z,3.75
2023-01-01T12:57:53.851Z,5.70
2023-01-01T13:00:25.603Z,5.12
2023-01-01T13:03:06.498Z,7.55
2023-01-01T13:05:44.893Z,5.95
2023-01-01T13:08:16.015Z,6.47
2023-01-01T13:10:50.057Z,8.23
2023-01-01T13:13:19.467Z,7.68
2023-01-01T13:18:39.011Z,9.50
2023-01-01T13:21:17.475Z,9.90
2023-01-01T13:23:48.697Z,5.05
2023-01-01T13:26:28.802Z,7.37
2023-01-01T13:29:07.739Z,5.60
2023-01-01T13:31:39.388Z,6.25
2023-01-01T13:34:38.428Z,5.82
2023-01-01T13:37:15.626Z,5.65
2023-01-01T13:40:26.998Z,5.57
2023-01-01T13:43:04.130Z,5.25
2023-01-01T13:46:11.778Z,7.35
2023-01-01T13:48:46.987Z,7.32
2023-01-01T13:52:03.511Z,6.50
2023-01-01T13:54:36.224Z,7.85
2023-01-01T13:57:24.688Z,5.53
2023-01-01T14:00:16.704Z,5.45
2023-01-01T14:02:48.825Z,6.43
2023-01-01T14:05:48.121Z,5.65
2023-01-01T14:08:37.117Z,5.07
2023-01-01T14:11:23.134Z,6.60
2023-01-01T14:13:53.651Z,7.00
2023-01-01T14:16:24.099Z,7.65
2023-01-01T14:19:01.726Z,7.30
2023-01-01T14:21:35.887Z,10.10
2023-01-01T14:24:12.562Z,6.25
2023-01-01T14:26:43.759Z,6.70
2023-01-01T14:29:23.969Z,5.97
2023-01-01T14:32:00.485Z,7.00
2023-01-01T14:34:36.882Z,5.68
2023-01-01T14:37:24.584Z,4.57
2023-01-01T14:40:11.948Z,5.18
2023-01-01T14:45:37.049Z,6.68
2023-01-01T14:48:09.226Z,6.15
2023-01-01T14:50:42.171Z,6.15
2023-01-01T14:53:19.318Z,6.43
2023-01-01T14:55:52.049Z,7.10
2023-01-01T14:58:30.172Z,6.82
2023-01-01T15:01:39.858Z,5.75
2023-01-01T15:04:24.212Z,5.05
2023-01-01T15:07:01.714Z,4.82
2023-01-01T15:09:32.738Z,5.40
2023-01-01T15:12:03.989Z,7.60
2023-01-01T15:14:45.881Z,9.70
2023-01-01T15:17:21.508Z,8.38
2023-01-01T15:20:07.105Z,6.53
2023-01-01T15:22:43.928Z,6.12
2023-01-01T15:25:20.210Z,5.93
2023-01-01T15:27:52.917Z,5.35
2023-01-01T15:30:30.802Z,6.68
2023-01-01T15:33:11.176Z,6.30
2023-01-01T15:35:42.967Z,3.55
2023-01-01T15:38:29.910Z,6.75
2023-01-01T15:41:24.202Z,6.53
2023-01-01T15:44:17.871Z,5.78
2023-01-01T15:46:51.863Z,5.93
2023-01-01T15:49:31.567Z,5.62
2023-01-01T15:52:05.996Z,4.47
2023-01-01T15:54:40.652Z,6.53
2023-01-01T15:57:24.029Z,5.12
2023-01-01T15:59:54.041Z,6.12
2023-01-01T16:02:31.624Z,5.15
2023-01-01T16:05:08.385Z,5.40
2023-01-01T16:07:39.754Z,6.28
2023-01-01T16:10:18.419Z,5.75
2023-01-01T16:12:48.305Z,5.65
2023-01-01T16:15:18.055Z,4.18
2023-01-01T16:17:49.097Z,5.55
2023-01-01T16:20:22.810Z,4.62
2023-01-01T16:22:52.768Z,5.65
2023-01-01T16:25:25.030Z,5.68
2023-01-01T16:27:54.372Z,5.25
2023-01-01T16:30:27.245Z,6.00
2023-01-01T16:32:57.937Z,6.70
2023-01-01T16:35:29.809Z,7.37
2023-01-01T16:37:58.938Z,5.90
2023-01-01T16:40:32.601Z,7.97
2023-01-01T16:43:17.044Z,6.97
2023-01-01T16:45:49.259Z,8.50
2023-01-01T16:48:24.765Z,8.25
2023-01-01T16:50:55.699Z,7.60
2023-01-01T16:53:23.656Z,6.97
2023-01-01T16:55:55.771Z,10.15
2023-01-01T17:01:19.194Z,7.20
2023-01-01T17:03:51.689Z,7.90
2023-01-01T17:06:23.151Z,6.53
2023-01-01T17:08:54.294Z,9.18
2023-01-01T17:11:27.110Z,8.80
2023-01-01T17:14:02.858Z,7.03
2023-01-01T17:16:39.200Z,11.32
2023-01-01T17:19:15.163Z,9.55
2023-01-01T17:21:43.760Z,6.80
2023-01-01T17:24:16.152Z,7.22
2023-01-01T17:26:48.683Z,7.47
2023-01-01T17:29:18.524Z,8.68
2023-01-01T17:31:46.451Z,7.40
2023-01-01T17:34:18.292Z,7.62
2023-01-01T17:39:37.755Z,5.95
2023-01-01T17:42:17.333Z,5.97
2023-01-01T17:45:14.410Z,8.43
2023-01-01T17:51:35.982Z,6.82
2023-01-01T17:54:36.109Z,10.38
2023-01-01T17:57:17.058Z,9.07
2023-01-01T18:02:50.324Z,11.75
2023-01-01T18:05:20.768Z,9.05
2023-01-01T18:07:53.457Z,7.60
2023-01-01T18:13:24.792Z,12.60
2023-01-01T18:16:03.814Z,12.20
2023-01-01T18:18:36.466Z,11.50
2023-01-01T18:21:23.429Z,11.05
2023-01-01T18:24:23.774Z,12.80
2023-01-01T18:27:03.809Z,10.48
2023-01-01T18:29:34.802Z,15.07
2023-01-01T18:35:05.002Z,15.00
2023-01-01T18:37:40.264Z,16.08
2023-01-01T18:40:18.400Z,12.55
2023-01-01T18:43:03.484Z,14.27
2023-01-01T18:45:45.029Z,15.10
2023-01-01T18:48:59.474Z,17.23
2023-01-01T18:52:07.687Z,17.80
2023-01-01T18:54:38.979Z,19.62
2023-01-01T18:57:17.613Z,16.12
2023-01-01T18:59:59.626Z,17.33
2023-01-01T19:03:16.342Z,20.55
2023-01-01T19:05:50.636Z,17.60
2023-01-01T19:08:25.976Z,15.20
2023-01-01T19:10:59.634Z,17.00
2023-01-01T19:13:38.852Z,18.45
2023-01-01T19:16:33.554Z,16.50
2023-01-01T19:19:21.305Z,14.57
2023-01-01T19:21:59.153Z,16.87
2023-01-01T19:24:35.909Z,17.77
2023-01-01T19:27:22.362Z,16.08
2023-01-01T19:29:56.242Z,15.63
2023-01-01T19:32:26.029Z,14.70
2023-01-01T19:34:58.710Z,15.60
2023-01-01T19:37:30.518Z,15.23
2023-01-01T19:39:59.954Z,14.73
2023-01-01T19:42:29.423Z,11.75
2023-01-01T19:45:03.229Z,10.73
2023-01-01T19:50:05.577Z,14.00
2023-01-01T19:52:40.405Z,16.95
2023-01-01T19:55:13.732Z,12.63
2023-01-01T19:57:46.690Z,10.80
2023-01-01T20:00:16.808Z,11.07
2023-01-01T20:02:47.923Z,13.27
2023-01-01T20:05:18.310Z,15.80
2023-01-01T20:07:48.792Z,15.43
2023-01-01T20:10:23.593Z,14.23
2023-01-01T20:13:02.908Z,12.50
2023-01-01T20:15:40.523Z,13.55
2023-01-01T20:18:16.039Z,12.55
2023-01-01T20:21:04.978Z,13.48
2023-01-01T20:23:34.593Z,10.98
2023-01-01T20:26:04.941Z,14.02
2023-01-01T20:28:52.487Z,13.10
2023-01-01T20:31:21.855Z,17.37
2023-01-01T20:33:51.165Z,14.52
2023-01-01T20:36:38.268Z,13.73
2023-01-01T20:39:07.096Z,13.27
2023-01-01T20:41:36.187Z,16.95
2023-01-01T20:44:04.243Z,15.35
2023-01-01T20:46:36.385Z,15.27
2023-01-01T20:49:06.581Z,17.58
2023-01-01T20:51:36.734Z,17.95
2023-01-01T20:54:05.179Z,19.00
2023-01-01T20:56:34.905Z,17.20
2023-01-01T20:59:31.405Z,19.30
2023-01-01T21:01:59.875Z,13.85
2023-01-01T21:04:29.028Z,17.85
2023-01-01T21:06:57.125Z,15.13
2023-01-01T21:09:25.249Z,14.48
2023-01-01T21:11:53.593Z,16.85
2023-01-01T21:14:25.654Z,19.65
2023-01-01T21:16:55.512Z,18.55
2023-01-01T21:19:26.989Z,20.37
2023-01-01T21:24:43.315Z,16.17
2023-01-01T21:27:24.118Z,23.05
2023-01-01T21:29:54.779Z,22.40
2023-01-01T21:32:29.223Z,17.85
2023-01-01T21:34:57.312Z,16.23
2023-01-01T21:37:48.722Z,15.20
2023-01-01T21:40:31.185Z,18.45
2023-01-01T21:43:12.607Z,16.45
2023-01-01T21:45:57.673Z,14.38
2023-01-01T21:48:52.310Z,14.82
2023-01-01T21:51:23.522Z,16.02
2023-01-01T21:53:54.404Z,15.60
2023-01-01T21:56:33.003Z,13.90
2023-01-01T21:59:38.067Z,15.45
2023-01-01T22:02:08.688Z,13.85
2023-01-01T22:04:38.325Z,15.00
2023-01-01T22:07:56.909Z,17.50
2023-01-01T22:10:36.942Z,16.23
2023-01-01T22:13:17.260Z,13.50
2023-01-01T22:15:46.810Z,11.63
2023-01-01T22:18:19.205Z,15.43
2023-01-01T22:20:48.002Z,14.27
2023-01-01T22:23:34.396Z,15.32
2023-01-01T22:26:19.548Z,15.20
2023-01-01T22:28:49.895Z,13.05
2023-01-01T22:31:32.395Z,11.77
2023-01-01T22:34:02.453Z,15.18
2023-01-01T22:36:38.063Z,14.80
2023-01-01T22:39:26.922Z,14.18
2023-01-01T22:41:55.582Z,12.32
2023-01-01T22:44:26.013Z,10.13
2023-01-01T22:46:58.792Z,10.18
2023-01-01T22:49:36.157Z,9.40
2023-01-01T22:52:04.872Z,10.05
2023-01-01T22:54:33.069Z,11.23
2023-01-01T22:57:00.967Z,11.20
2023-01-01T22:59:28.955Z,10.35
2023-01-01T23:01:57.162Z,11.98
2023-01-01T23:04:24.968Z,12.75
2023-01-01T23:06:53.800Z,13.13
2023-01-01T23:09:22.059Z,17.45
2023-01-01T23:11:49.849Z,16.60
2023-01-01T23:14:39.045Z,17.90
2023-01-01T23:17:07.913Z,9.90
2023-01-01T23:19:35.974Z,7.18
2023-01-01T23:22:04.579Z,9.48
2023-01-01T23:24:33.205Z,6.60
2023-01-01T23:27:01.688Z,7.00
2023-01-01T23:29:33.839Z,6.82
2023-01-01T23:32:05.186Z,7.65
2023-01-01T23:34:33.670Z,11.27
2023-01-01T23:37:01.741Z,13.85
2023-01-01T23:39:29.880Z,8.70
2023-01-01T23:42:00.808Z,9.02
2023-01-01T23:44:29.113Z,11.77
2023-01-01T23:46:59.570Z,10.40
2023-01-01T23:49:28.845Z,8.40
2023-01-01T23:51:57.205Z,7.75
2023-01-01T23:54:25.173Z,7.35
2023-01-01T23:56:52.935Z,8.60
2023-01-01T23:59:24.236Z,11.05
